createdAt,value
2023-04-16T00:02:21.884Z,36.04
2023-04-16T00:04:50.770Z,36.83
2023-04-16T00:07:18.195Z,36.62
2023-04-16T00:09:46.537Z,36.58
2023-04-16T00:12:14.814Z,36.06
2023-04-16T00:14:43.643Z,36.09
2023-04-16T00:17:11.175Z,36.24
2023-04-16T00:19:38.961Z,36.76
2023-04-16T00:22:07.720Z,36.80
2023-04-16T00:24:35.163Z,36.83
2023-04-16T00:27:02.536Z,37.15
2023-04-16T00:29:31.164Z,37.60
2023-04-16T00:31:58.611Z,37.03
2023-04-16T00:34:26.179Z,37.16
2023-04-16T00:36:53.452Z,36.92
2023-04-16T00:39:22.344Z,36.99
2023-04-16T00:41:49.630Z,36.83
2023-04-16T00:44:17.218Z,37.11
2023-04-16T00:46:46.164Z,37.20
2023-04-16T00:49:13.799Z,37.17
2023-04-16T00:51:41.792Z,37.15
2023-04-16T00:54:09.191Z,37.25
2023-04-16T00:56:38.890Z,37.03
2023-04-16T00:59:06.260Z,37.08
2023-04-16T01:01:33.717Z,37.21
2023-04-16T01:04:01.315Z,37.48
2023-04-16T01:06:29.036Z,37.68
2023-04-16T01:08:56.594Z,37.82
2023-04-16T01:11:24.671Z,37.57
2023-04-16T01:13:53.464Z,38.02
2023-04-16T01:16:21.424Z,37.68
2023-04-16T01:18:48.867Z,37.98
2023-04-16T01:21:17.815Z,37.75
2023-04-16T01:23:45.347Z,38.11
2023-04-16T01:26:13.024Z,38.30
2023-04-16T01:28:42.098Z,38.18
2023-04-16T01:31:09.636Z,37.82
2023-04-16T01:33:46.500Z,37.89
2023-04-16T01:36:13.894Z,37.67
2023-04-16T01:38:42.834Z,38.37
2023-04-16T01:41:10.198Z,38.61
2023-04-16T01:43:40.068Z,38.64
2023-04-16T01:46:16.087Z,38.70
2023-04-16T01:48:43.701Z,38.52
2023-04-16T01:51:11.146Z,38.51
2023-04-16T01:53:38.912Z,38.47
2023-04-16T01:56:08.179Z,38.32
2023-04-16T01:58:36.042Z,38.53
2023-04-16T02:01:04.565Z,38.42
2023-04-16T02:03:32.966Z,38.48
2023-04-16T02:06:01.378Z,38.53
2023-04-16T02:08:29.633Z,38.66
2023-04-16T02:10:57.940Z,38.87
2023-04-16T02:13:27.825Z,38.89
2023-04-16T02:15:55.592Z,39.02
2023-04-16T02:19:04.084Z,38.43
2023-04-16T02:21:34.670Z,38.88
2023-04-16T02:24:01.980Z,39.06
2023-04-16T02:26:31.066Z,38.92
2023-04-16T02:29:06.576Z,39.11
2023-04-16T02:31:40.545Z,39.37
2023-04-16T02:34:09.195Z,39.62
2023-04-16T02:36:36.738Z,39.53
2023-04-16T02:39:04.771Z,39.90
2023-04-16T02:41:32.216Z,40.16
2023-04-16T02:43:59.675Z,40.35
2023-04-16T02:46:29.229Z,40.70
2023-04-16T02:48:56.750Z,40.48
2023-04-16T02:51:24.159Z,40.32
2023-04-16T02:53:51.505Z,40.24
2023-04-16T02:56:18.890Z,40.13
2023-04-16T02:58:46.350Z,40.10
2023-04-16T03:01:13.727Z,40.48
2023-04-16T03:03:42.603Z,39.67
2023-04-16T03:06:09.955Z,40.07
2023-04-16T03:08:37.300Z,40.21
2023-04-16T03:11:04.993Z,40.17
2023-04-16T03:13:32.407Z,40.06
2023-04-16T03:16:00.219Z,40.09
2023-04-16T03:18:27.764Z,40.24
2023-04-16T03:20:56.441Z,40.15
2023-04-16T03:23:23.988Z,40.09
2023-04-16T03:25:51.304Z,40.10
2023-04-16T03:28:19.176Z,40.33
2023-04-16T03:30:51.420Z,40.39
2023-04-16T03:33:19.129Z,40.01
2023-04-16T03:35:46.624Z,40.14
2023-04-16T03:38:35.297Z,40.64
2023-04-16T03:41:02.575Z,40.89
2023-04-16T03:43:33.105Z,40.81
2023-04-16T03:46:01.041Z,40.90
2023-04-16T03:48:28.311Z,40.60
2023-04-16T03:50:56.015Z,40.68
2023-04-16T03:53:23.670Z,40.38
2023-04-16T03:55:53.159Z,40.63
2023-04-16T03:58:21.968Z,41.04
2023-04-16T04:00:49.270Z,40.88
2023-04-16T04:03:18.759Z,41.05
2023-04-16T04:05:50.585Z,40.69
2023-04-16T04:08:25.152Z,41.32
2023-04-16T04:10:54.246Z,41.09
2023-04-16T04:13:23.765Z,41.22
2023-04-16T04:15:52.658Z,40.81
2023-04-16T04:18:24.091Z,40.66
2023-04-16T04:20:51.803Z,40.96
2023-04-16T04:23:21.483Z,40.24
2023-04-16T04:25:49.013Z,40.46
2023-04-16T04:28:17.795Z,40.40
2023-04-16T04:30:45.363Z,40.98
2023-04-16T04:33:13.344Z,40.01
2023-04-16T04:35:40.997Z,40.13
2023-04-16T04:38:09.501Z,39.86
2023-04-16T04:40:36.931Z,40.99
2023-04-16T04:43:07.326Z,40.36
2023-04-16T04:45:36.253Z,39.59
2023-04-16T04:48:05.606Z,39.69
2023-04-16T04:50:33.120Z,39.68
2023-04-16T04:53:01.025Z,39.50
2023-04-16T04:55:28.393Z,39.94
2023-04-16T04:57:56.445Z,39.41
2023-04-16T05:00:23.856Z,38.37
2023-04-16T05:02:56.458Z,38.83
2023-04-16T05:05:23.968Z,37.64
2023-04-16T05:07:51.385Z,38.31
2023-04-16T05:10:18.694Z,36.91
2023-04-16T05:12:49.169Z,36.98
2023-04-16T05:15:16.722Z,36.16
2023-04-16T05:17:44.135Z,36.61
2023-04-16T05:20:13.064Z,36.25
2023-04-16T05:22:40.518Z,36.31
2023-04-16T05:25:09.000Z,36.21
2023-04-16T05:27:37.208Z,35.43
2023-04-16T05:30:05.610Z,34.46
2023-04-16T05:32:33.542Z,34.10
2023-04-16T05:35:01.187Z,33.84
2023-04-16T05:37:30.822Z,34.46
2023-04-16T05:39:58.123Z,34.36
2023-04-16T05:42:25.646Z,34.21
2023-04-16T05:44:53.110Z,34.04
2023-04-16T05:47:20.650Z,33.78
2023-04-16T05:49:48.040Z,33.20
2023-04-16T05:52:15.606Z,33.13
2023-04-16T05:54:44.246Z,33.02
2023-04-16T05:57:11.875Z,32.66
2023-04-16T05:59:39.202Z,32.38
2023-04-16T06:02:07.349Z,31.94
2023-04-16T06:04:35.945Z,31.78
2023-04-16T06:07:03.606Z,31.95
2023-04-16T06:09:31.148Z,31.06
2023-04-16T06:12:00.139Z,30.26
2023-04-16T06:14:27.826Z,30.07
2023-04-16T06:16:55.641Z,30.28
2023-04-16T06:19:23.206Z,30.67
2023-04-16T06:21:51.290Z,30.79
2023-04-16T06:24:18.614Z,30.67
2023-04-16T06:26:46.021Z,29.86
2023-04-16T06:29:15.427Z,29.46
2023-04-16T06:31:42.952Z,29.05
2023-04-16T06:34:10.552Z,29.46
2023-04-16T06:36:37.927Z,29.64
2023-04-16T06:39:05.315Z,29.14
2023-04-16T06:41:32.748Z,28.40
2023-04-16T06:44:00.010Z,28.53
2023-04-16T06:46:28.777Z,28.20
2023-04-16T06:48:56.166Z,28.46
2023-04-16T06:51:23.493Z,28.79
2023-04-16T06:53:51.376Z,28.32
2023-04-16T06:56:18.885Z,28.27
2023-04-16T06:58:46.300Z,28.55
2023-04-16T07:01:13.835Z,28.75
2023-04-16T07:03:43.128Z,28.01
2023-04-16T07:06:10.895Z,27.64
2023-04-16T07:08:38.473Z,27.80
2023-04-16T07:11:06.150Z,27.82
2023-04-16T07:13:33.650Z,27.28
2023-04-16T07:16:01.032Z,27.30
2023-04-16T07:18:28.570Z,27.57
2023-04-16T07:20:57.571Z,27.27
2023-04-16T07:23:24.977Z,26.73
2023-04-16T07:25:52.306Z,26.82
2023-04-16T07:28:20.413Z,26.80
2023-04-16T07:30:47.938Z,26.82
2023-04-16T07:33:15.655Z,27.18
2023-04-16T07:35:43.271Z,27.41
2023-04-16T07:38:12.094Z,27.68
2023-04-16T07:40:39.534Z,27.22
2023-04-16T07:43:07.321Z,26.69
2023-04-16T07:45:34.798Z,26.39
2023-04-16T07:48:02.240Z,26.43
2023-04-16T07:50:29.766Z,25.94
2023-04-16T07:52:57.119Z,26.35
2023-04-16T07:55:26.019Z,26.64
2023-04-16T07:57:53.981Z,26.38
2023-04-16T08:00:21.826Z,26.41
2023-04-16T08:02:49.534Z,26.47
2023-04-16T08:05:17.267Z,26.47
2023-04-16T08:07:44.697Z,25.54
2023-04-16T08:10:12.968Z,25.36
2023-04-16T08:12:41.820Z,25.36
2023-04-16T08:15:10.094Z,25.51
2023-04-16T08:17:37.916Z,25.46
2023-04-16T08:20:09.510Z,25.20
2023-04-16T08:22:37.403Z,24.96
2023-04-16T08:25:05.221Z,24.71
2023-04-16T08:27:32.642Z,25.04
2023-04-16T08:30:01.395Z,24.71
2023-04-16T08:32:32.857Z,25.28
2023-04-16T08:35:03.361Z,25.60
2023-04-16T08:37:32.150Z,25.11
2023-04-16T08:40:01.185Z,25.06
2023-04-16T08:42:34.519Z,24.91
2023-04-16T08:45:16.228Z,25.10
2023-04-16T08:47:46.933Z,25.07
2023-04-16T08:50:15.851Z,24.85
2023-04-16T08:52:47.321Z,24.41
2023-04-16T08:55:19.000Z,24.27
2023-04-16T08:57:49.700Z,24.75
2023-04-16T09:00:19.435Z,24.55
2023-04-16T09:02:47.154Z,24.25
2023-04-16T09:05:21.933Z,24.11
2023-04-16T09:07:49.449Z,24.39
2023-04-16T09:10:17.933Z,23.58
2023-04-16T09:12:45.294Z,24.29
2023-04-16T09:15:13.761Z,24.29
2023-04-16T09:17:42.557Z,24.01
2023-04-16T09:20:11.204Z,24.26
2023-04-16T09:22:40.511Z,23.68
2023-04-16T09:25:08.962Z,24.21
2023-04-16T09:27:37.064Z,24.03
2023-04-16T09:30:22.017Z,23.76
2023-04-16T09:32:51.449Z,23.62
2023-04-16T09:35:20.472Z,23.76
2023-04-16T09:37:57.849Z,23.97
2023-04-16T09:40:27.353Z,23.63
2023-04-16T09:42:58.601Z,23.50
2023-04-16T09:45:26.416Z,23.52
2023-04-16T09:48:04.129Z,23.14
2023-04-16T09:50:31.593Z,22.55
2023-04-16T09:53:03.676Z,22.20
2023-04-16T09:55:30.646Z,21.97
2023-04-16T09:58:01.865Z,22.07
2023-04-16T10:00:30.806Z,22.41
2023-04-16T10:03:06.193Z,22.38
2023-04-16T10:05:33.947Z,22.41
2023-04-16T10:08:04.354Z,22.16
2023-04-16T10:10:32.587Z,22.26
2023-04-16T10:13:00.259Z,21.73
2023-04-16T10:15:28.400Z,22.04
2023-04-16T10:17:57.161Z,21.56
2023-04-16T10:20:27.074Z,21.46
2023-04-16T10:22:55.060Z,21.48
2023-04-16T10:25:28.559Z,21.10
2023-04-16T10:28:02.848Z,21.23
2023-04-16T10:30:30.474Z,21.77
2023-04-16T10:33:02.936Z,21.37
2023-04-16T10:35:36.061Z,20.95
2023-04-16T10:38:27.752Z,21.06
2023-04-16T10:41:03.209Z,21.13
2023-04-16T10:43:31.257Z,21.29
2023-04-16T10:46:18.407Z,21.48
2023-04-16T10:48:50.434Z,21.75
2023-04-16T10:51:28.774Z,21.29
2023-04-16T10:53:57.258Z,21.20
2023-04-16T10:56:25.743Z,21.03
2023-04-16T10:58:59.243Z,21.32
2023-04-16T11:01:37.396Z,20.88
2023-04-16T11:04:28.804Z,20.59
2023-04-16T11:07:18.843Z,20.64
2023-04-16T11:09:57.760Z,20.66
2023-04-16T11:12:29.358Z,20.61
2023-04-16T11:15:03.114Z,20.98
2023-04-16T11:17:38.103Z,21.17
2023-04-16T11:20:20.181Z,20.86
2023-04-16T11:22:51.677Z,20.46
2023-04-16T11:25:23.058Z,20.57
2023-04-16T11:27:51.079Z,20.89
2023-04-16T11:30:19.535Z,20.75
2023-04-16T11:32:47.140Z,20.79
2023-04-16T11:35:17.091Z,20.92
2023-04-16T11:37:44.777Z,20.95
2023-04-16T11:40:14.177Z,20.66
2023-04-16T11:42:42.268Z,20.77
2023-04-16T11:45:12.009Z,20.86
2023-04-16T11:47:46.490Z,20.71
2023-04-16T11:50:19.087Z,20.68
2023-04-16T11:52:47.171Z,20.55
2023-04-16T11:55:16.205Z,20.54
2023-04-16T11:57:43.895Z,20.60
2023-04-16T12:00:15.358Z,20.60
2023-04-16T12:02:46.280Z,20.71
2023-04-16T12:05:30.900Z,20.62
2023-04-16T12:08:00.466Z,20.60
2023-04-16T12:10:32.219Z,20.06
2023-04-16T12:13:12.716Z,20.04
2023-04-16T12:15:48.230Z,20.33
2023-04-16T12:18:18.746Z,20.32
2023-04-16T12:20:46.999Z,20.02
2023-04-16T12:23:24.170Z,20.06
2023-04-16T12:25:53.246Z,19.58
2023-04-16T12:28:31.331Z,19.79
2023-04-16T12:30:58.783Z,19.68
2023-04-16T12:33:26.399Z,19.21
2023-04-16T12:35:54.989Z,19.29
2023-04-16T12:38:24.505Z,19.42
2023-04-16T12:40:56.967Z,19.58
2023-04-16T12:43:25.259Z,19.83
2023-04-16T12:45:53.071Z,19.50
2023-04-16T12:48:20.907Z,19.33
2023-04-16T12:50:48.327Z,19.30
2023-04-16T12:53:15.806Z,19.19
2023-04-16T12:55:45.468Z,19.33
2023-04-16T12:58:14.253Z,18.88
2023-04-16T13:00:41.588Z,19.13
2023-04-16T13:03:09.207Z,19.04
2023-04-16T13:05:37.910Z,18.86
2023-04-16T13:08:05.931Z,19.17
2023-04-16T13:10:33.421Z,19.50
2023-04-16T13:13:00.862Z,19.33
2023-04-16T13:15:32.134Z,19.12
2023-04-16T13:17:59.579Z,19.13
2023-04-16T13:20:27.017Z,19.18
2023-04-16T13:22:54.489Z,18.72
2023-04-16T13:25:21.897Z,18.95
2023-04-16T13:27:49.353Z,18.94
2023-04-16T13:30:17.026Z,18.74
2023-04-16T13:32:46.004Z,18.89
2023-04-16T13:35:13.326Z,18.91
2023-04-16T13:37:51.326Z,18.46
2023-04-16T13:40:18.758Z,18.69
2023-04-16T13:42:46.148Z,18.62
2023-04-16T13:45:13.581Z,18.49
2023-04-16T13:47:42.506Z,18.51
2023-04-16T13:50:11.960Z,18.66
2023-04-16T13:52:39.322Z,18.55
2023-04-16T13:55:09.599Z,18.64
2023-04-16T13:57:37.425Z,18.40
2023-04-16T14:00:05.728Z,18.48
2023-04-16T14:02:34.149Z,18.74
2023-04-16T14:05:01.715Z,18.74
2023-04-16T14:07:32.835Z,18.78
2023-04-16T14:10:00.408Z,19.20
2023-04-16T14:12:28.542Z,19.23
2023-04-16T14:14:56.572Z,19.50
2023-04-16T14:17:23.936Z,20.03
2023-04-16T14:19:51.496Z,19.82
2023-04-16T14:22:18.891Z,19.91
2023-04-16T14:24:47.600Z,19.86
2023-04-16T14:27:15.077Z,19.81
2023-04-16T14:29:42.561Z,19.19
2023-04-16T14:32:09.957Z,19.30
2023-04-16T14:34:37.534Z,19.57
2023-04-16T14:37:05.793Z,20.28
2023-04-16T14:39:33.361Z,20.03
2023-04-16T14:42:02.205Z,20.20
2023-04-16T14:44:29.671Z,20.40
2023-04-16T14:46:57.100Z,19.98
2023-04-16T14:49:24.974Z,19.99
2023-04-16T14:51:52.629Z,20.25
2023-04-16T14:54:20.350Z,20.34
2023-04-16T14:56:47.691Z,20.36
2023-04-16T14:59:16.463Z,20.67
2023-04-16T15:01:44.145Z,20.82
2023-04-16T15:04:12.019Z,20.87
2023-04-16T15:06:39.954Z,20.93
2023-04-16T15:09:08.318Z,21.13
2023-04-16T15:11:38.291Z,21.23
2023-04-16T15:14:05.685Z,21.21
2023-04-16T15:16:34.895Z,21.24
2023-04-16T15:19:04.862Z,21.58
2023-04-16T15:21:33.048Z,21.74
2023-04-16T15:24:00.562Z,21.74
2023-04-16T15:26:28.099Z,21.69
2023-04-16T15:28:55.631Z,22.02
2023-04-16T15:31:23.093Z,22.11
2023-04-16T15:33:52.914Z,21.99
2023-04-16T15:36:20.985Z,22.35
2023-04-16T15:38:48.486Z,22.22
2023-04-16T15:41:15.977Z,22.29
2023-04-16T15:43:43.336Z,22.19
2023-04-16T15:46:10.932Z,22.23
2023-04-16T15:48:38.392Z,22.39
2023-04-16T15:51:07.450Z,22.33
2023-04-16T15:53:35.220Z,22.57
2023-04-16T15:56:04.331Z,22.69
2023-04-16T15:58:31.723Z,22.56
2023-04-16T16:01:02.756Z,22.79
2023-04-16T16:03:32.336Z,22.41
2023-04-16T16:06:09.080Z,22.78
2023-04-16T16:08:38.524Z,23.00
2023-04-16T16:11:06.103Z,22.70
2023-04-16T16:13:33.458Z,23.22
2023-04-16T16:16:01.120Z,22.95
2023-04-16T16:18:29.584Z,23.12
2023-04-16T16:21:00.661Z,23.15
2023-04-16T16:23:33.845Z,23.22
2023-04-16T16:26:08.497Z,23.42
2023-04-16T16:28:38.744Z,23.61
2023-04-16T16:31:07.030Z,23.75
2023-04-16T16:33:34.424Z,23.62
2023-04-16T16:36:01.951Z,23.72
2023-04-16T16:38:29.371Z,23.58
2023-04-16T16:40:56.767Z,23.46
2023-04-16T16:43:25.705Z,23.62
2023-04-16T16:45:53.008Z,23.84
2023-04-16T16:48:20.282Z,24.36
2023-04-16T16:50:47.624Z,23.83
2023-04-16T16:53:17.968Z,24.13
2023-04-16T16:55:45.294Z,24.28
2023-04-16T16:58:12.662Z,24.12
2023-04-16T17:00:41.746Z,24.33
2023-04-16T17:03:09.627Z,24.18
2023-04-16T17:05:37.718Z,24.46
2023-04-16T17:08:06.694Z,24.40
2023-04-16T17:10:35.348Z,24.72
2023-04-16T17:13:02.724Z,24.37
2023-04-16T17:15:30.211Z,24.80
2023-04-16T17:17:58.968Z,24.83
2023-04-16T17:20:26.618Z,25.16
2023-04-16T17:22:54.303Z,25.23
2023-04-16T17:25:21.716Z,25.02
2023-04-16T17:27:49.269Z,24.77
2023-04-16T17:30:17.023Z,25.09
2023-04-16T17:32:44.599Z,24.95
2023-04-16T17:35:13.989Z,24.82
2023-04-16T17:37:41.893Z,25.08
2023-04-16T17:40:10.194Z,25.59
2023-04-16T17:42:38.954Z,25.15
2023-04-16T17:45:07.531Z,25.26
2023-04-16T17:47:36.058Z,25.34
2023-04-16T17:50:04.008Z,25.41
2023-04-16T17:52:33.232Z,25.20
2023-04-16T17:55:01.746Z,25.83
2023-04-16T17:57:32.061Z,25.82
2023-04-16T17:59:59.436Z,25.23
2023-04-16T18:02:27.260Z,25.56
2023-04-16T18:04:54.802Z,25.51
2023-04-16T18:07:22.449Z,26.10
2023-04-16T18:09:51.293Z,26.29
2023-04-16T18:12:18.642Z,25.82
2023-04-16T18:14:46.305Z,25.70
2023-04-16T18:17:13.773Z,26.18
2023-04-16T18:19:43.790Z,26.24
2023-04-16T18:22:13.278Z,25.78
2023-04-16T18:24:40.818Z,26.19
2023-04-16T18:27:09.729Z,25.98
2023-04-16T18:29:39.635Z,26.00
2023-04-16T18:32:11.442Z,26.39
2023-04-16T18:34:39.798Z,25.96
2023-04-16T18:37:07.605Z,26.44
2023-04-16T18:39:36.517Z,26.05
2023-04-16T18:42:04.230Z,26.68
2023-04-16T18:44:32.920Z,26.67
2023-04-16T18:47:00.482Z,26.39
2023-04-16T18:49:27.924Z,26.91
2023-04-16T18:51:55.992Z,26.93
2023-04-16T18:54:23.391Z,26.43
2023-04-16T18:56:51.020Z,26.84
2023-04-16T18:59:18.284Z,26.40
2023-04-16T19:01:47.025Z,26.75
2023-04-16T19:04:14.623Z,26.55
2023-04-16T19:06:42.254Z,26.88
2023-04-16T19:09:11.429Z,26.75
2023-04-16T19:11:39.110Z,27.11
2023-04-16T19:14:07.929Z,26.71
2023-04-16T19:16:35.504Z,26.77
2023-04-16T19:19:04.390Z,27.28
2023-04-16T19:21:32.627Z,27.31
2023-04-16T19:24:00.069Z,26.81
2023-04-16T19:26:28.092Z,27.42
2023-04-16T19:28:55.450Z,27.41
2023-04-16T19:31:22.924Z,26.84
2023-04-16T19:33:50.396Z,27.36
2023-04-16T19:36:19.100Z,27.52
2023-04-16T19:38:46.637Z,27.21
2023-04-16T19:41:13.949Z,27.32
2023-04-16T19:43:41.162Z,27.34
2023-04-16T19:46:08.595Z,27.84
2023-04-16T19:48:36.524Z,27.93
2023-04-16T19:51:04.376Z,27.69
2023-04-16T19:53:34.546Z,27.58
2023-04-16T19:56:01.911Z,27.87
2023-04-16T19:58:29.349Z,27.87
2023-04-16T20:00:56.859Z,28.15
2023-04-16T20:03:24.525Z,28.17
2023-04-16T20:05:51.833Z,27.80
2023-04-16T20:08:19.091Z,27.97
2023-04-16T20:10:48.203Z,28.56
2023-04-16T20:13:17.401Z,28.53
2023-04-16T20:15:47.311Z,28.45
2023-04-16T20:18:14.745Z,28.50
2023-04-16T20:20:42.147Z,28.31
2023-04-16T20:23:09.473Z,28.86
2023-04-16T20:25:41.634Z,28.57
2023-04-16T20:28:10.221Z,28.50
2023-04-16T20:30:40.406Z,28.30
2023-04-16T20:33:07.921Z,28.47
2023-04-16T20:35:35.383Z,28.63
2023-04-16T20:38:02.987Z,28.43
2023-04-16T20:40:30.544Z,28.36
2023-04-16T20:43:00.029Z,28.83
2023-04-16T20:45:38.444Z,28.99
2023-04-16T20:48:06.287Z,28.82
2023-04-16T20:50:34.045Z,29.04
2023-04-16T20:53:01.713Z,28.91
2023-04-16T20:55:29.347Z,28.81
2023-04-16T20:57:56.549Z,29.01
2023-04-16T21:00:24.262Z,28.98
2023-04-16T21:02:53.283Z,28.91
2023-04-16T21:05:21.532Z,29.15
2023-04-16T21:07:48.979Z,29.14
2023-04-16T21:10:20.398Z,29.28
2023-04-16T21:12:49.563Z,29.47
2023-04-16T21:15:17.056Z,29.35
2023-04-16T21:17:44.515Z,29.57
2023-04-16T21:20:14.140Z,29.40
2023-04-16T21:22:41.492Z,29.78
2023-04-16T21:25:09.899Z,29.95
2023-04-16T21:27:37.268Z,30.05
2023-04-16T21:30:05.353Z,30.01
2023-04-16T21:32:32.840Z,29.94
2023-04-16T21:35:00.778Z,29.94
2023-04-16T21:37:29.569Z,30.05
2023-04-16T21:39:56.897Z,29.97
2023-04-16T21:42:24.465Z,29.99
2023-04-16T21:44:51.787Z,29.78
2023-04-16T21:47:19.528Z,30.13
2023-04-16T21:49:46.864Z,30.37
2023-04-16T21:52:20.373Z,30.42
2023-04-16T21:54:49.117Z,30.48
2023-04-16T21:57:16.789Z,30.41
2023-04-16T21:59:44.155Z,30.49
2023-04-16T22:02:11.469Z,30.32
2023-04-16T22:04:39.158Z,30.55
2023-04-16T22:07:11.795Z,31.05
2023-04-16T22:09:39.250Z,30.85
2023-04-16T22:12:10.378Z,30.98
2023-04-16T22:14:42.045Z,30.86
2023-04-16T22:17:15.136Z,30.90
2023-04-16T22:19:42.820Z,30.66
2023-04-16T22:22:10.502Z,30.85
2023-04-16T22:24:37.783Z,30.86
2023-04-16T22:27:05.152Z,31.09
2023-04-16T22:29:33.912Z,31.26
2023-04-16T22:32:02.027Z,31.20
2023-04-16T22:34:29.742Z,31.00
2023-04-16T22:36:57.176Z,31.18
2023-04-16T22:39:24.577Z,31.10
2023-04-16T22:41:51.803Z,30.98
2023-04-16T22:44:19.271Z,30.93
2023-04-16T22:46:48.058Z,31.31
2023-04-16T22:49:15.576Z,31.18
2023-04-16T22:51:43.551Z,31.16
2023-04-16T22:54:13.807Z,30.93
2023-04-16T22:56:41.668Z,31.28
2023-04-16T22:59:09.135Z,30.95
2023-04-16T23:01:36.867Z,31.37
2023-04-16T23:04:06.003Z,31.24
2023-04-16T23:06:33.256Z,31.49
2023-04-16T23:09:00.744Z,31.64
2023-04-16T23:11:28.069Z,31.84
2023-04-16T23:13:55.912Z,31.85
2023-04-16T23:16:23.174Z,31.71
2023-04-16T23:18:50.539Z,32.19
2023-04-16T23:21:19.176Z,32.23
2023-04-16T23:23:46.794Z,32.07
2023-04-16T23:26:14.089Z,32.07
2023-04-16T23:28:41.772Z,32.17
2023-04-16T23:31:09.268Z,32.05
2023-04-16T23:33:36.648Z,32.21
2023-04-16T23:36:04.562Z,32.46
2023-04-16T23:38:33.354Z,32.27
2023-04-16T23:41:01.071Z,32.26
2023-04-16T23:43:28.293Z,32.50
2023-04-16T23:45:55.978Z,32.29
2023-04-16T23:48:23.379Z,32.53
2023-04-16T23:50:50.903Z,32.88
2023-04-16T23:53:18.186Z,32.76
2023-04-16T23:55:47.014Z,32.61
2023-04-16T23:58:14.278Z,33.09
